MHLC/LCE METAR and TAF weather

Enter ICAO airport designator
Station Type Date Time Source
MHLC METAR 2021/07/24 21:00 UTC NOAA

MHLC 242100Z 01010KT 9999 FEW025TCU 31/23 Q1014 A2995 NOSIG


Station Type Date Time Source
MHLC Decoded METAR 2021/07/24 21:00 UTC NOAA

La Ceiba Airport , Honduras (MHLC) 15-44N 086-52W 26M
Jul 24, 2021 - 05:00 PM EDT / 2021.07.24 2100 UTC
Wind: from the N (010 degrees) at 12 MPH (10 KT):0
Visibility: greater than 7 mile(s):0
Sky conditions: mostly clear
Weather: Towering cumulus clouds observed
Temperature: 87 F (31 C)
Heat index: 93.9 F (34.4 C):1
Dew Point: 73 F (23 C)
Relative Humidity: 62%
Pressure (altimeter): 29.95 in. Hg (1014 hPa)
ob: MHLC 242100Z 01010KT 9999 FEW025TCU 31/23 Q1014 A2995 NOSIG
cycle: 21

Station Type Date Time Source
MHLC TAF 2021/07/24 18:47 UTC NOAA

TAF MHLC 241620Z 2418/2518 06010KT 9999 SCT026 TX31/2419Z TN23/2512Z
TEMPO 2421/2501 8000 VCSH FEW026CB SCT080
BECMG 2501/2503 17004KT SCT026
BECMG 2515/2517 35004KT

Example: see airport list